Time;durP1;ratioP1;P1;durP2;ratioP2;P2;SDS_P1;SDS_P2;PMS_P1;PMS_P2;Temp;Humidity;BMP_temperature;BMP_pressure;BME280_temperature;BME280_humidity;BME280_pressure;Samples;Min_cycle;Max_cycle;Signal;HPM_P1;HPM_P2
2022/06/28 00:02:06;;;;;;;1.65;1.55;;;27.20;56.50;;;;;;5064378;28;20049;-61
2022/06/28 00:04:33;;;;;;;1.50;1.50;;;27.20;56.50;;;;;;5064608;28;20049;-61
2022/06/28 00:07:01;;;;;;;1.92;1.83;;;27.20;56.50;;;;;;5064393;28;20060;-61
2022/06/28 00:09:28;;;;;;;1.65;1.65;;;27.10;56.40;;;;;;5064269;28;20812;-61
2022/06/28 00:11:55;;;;;;;1.98;1.88;;;27.20;56.50;;;;;;5064602;28;20069;-61
2022/06/28 00:17:11;;;;;;;1.73;1.70;;;27.20;56.50;;;;;;5063031;28;20068;-61
2022/06/28 00:19:38;;;;;;;1.90;1.80;;;27.20;56.50;;;;;;5063994;28;20052;-63
2022/06/28 00:22:05;;;;;;;2.00;1.90;;;27.10;56.50;;;;;;5064393;28;20045;-63
2022/06/28 00:24:33;;;;;;;2.10;2.00;;;27.10;56.50;;;;;;5063718;28;20044;-61
2022/06/28 00:27:01;;;;;;;1.70;1.60;;;27.10;56.50;;;;;;5063919;28;20045;-61
2022/06/28 00:29:28;;;;;;;1.92;1.83;;;27.10;56.50;;;;;;5063735;28;20116;-61
2022/06/28 00:31:55;;;;;;;1.50;1.50;;;27.10;56.50;;;;;;5062744;28;20542;-61
2022/06/28 00:34:22;;;;;;;1.60;1.50;;;27.10;56.50;;;;;;5063743;28;20099;-61
2022/06/28 00:36:49;;;;;;;1.80;1.80;;;27.10;56.50;;;;;;5062538;28;20106;-61
2022/06/28 00:39:17;;;;;;;1.83;1.75;;;27.10;56.60;;;;;;5063577;28;20067;-61
2022/06/28 00:41:45;;;;;;;1.95;1.85;;;27.10;56.50;;;;;;5062189;28;20470;-61
2022/06/28 00:44:13;;;;;;;1.58;1.58;;;27.10;56.50;;;;;;5063091;28;20414;-61
2022/06/28 00:46:40;;;;;;;1.77;1.70;;;27.10;56.60;;;;;;5063544;28;20052;-61
2022/06/28 00:49:08;;;;;;;1.80;1.70;;;27.10;56.60;;;;;;5063202;28;20080;-63
2022/06/28 00:51:36;;;;;;;1.73;1.70;;;27.10;56.60;;;;;;5062990;28;20444;-61
2022/06/28 00:54:04;;;;;;;1.50;1.50;;;27.10;56.60;;;;;;5050115;28;20114;-61
2022/06/28 00:56:31;;;;;;;1.50;1.50;;;27.00;56.50;;;;;;5049999;28;20541;-63
2022/06/28 00:58:58;;;;;;;1.63;1.52;;;27.00;56.50;;;;;;5048847;28;20045;-61
2022/06/28 01:01:26;;;;;;;1.52;1.48;;;27.00;56.60;;;;;;5050472;28;20905;-61
2022/06/28 01:03:55;;;;;;;1.65;1.48;;;27.00;56.60;;;;;;5050343;28;20103;-61
2022/06/28 01:06:22;;;;;;;1.67;1.60;;;27.00;56.60;;;;;;5049548;28;20063;-61
2022/06/28 01:08:49;;;;;;;1.83;1.73;;;27.00;56.60;;;;;;5050070;28;20056;-60
2022/06/28 01:11:21;;;;;;;1.65;1.60;;;27.00;56.60;;;;;;5049797;28;20460;-61
2022/06/28 01:13:54;;;;;;;1.60;1.60;;;27.00;56.60;;;;;;5049656;28;20786;-61
2022/06/28 01:16:23;;;;;;;1.83;1.73;;;27.00;56.60;;;;;;5049923;28;20487;-61
2022/06/28 01:18:50;;;;;;;1.63;1.52;;;27.00;56.60;;;;;;5049710;28;20053;-63
2022/06/28 01:21:17;;;;;;;1.85;1.75;;;27.00;56.60;;;;;;5049589;28;20071;-63
2022/06/28 01:23:46;;;;;;;1.58;1.55;;;27.00;56.70;;;;;;5049800;28;20099;-63
2022/06/28 01:26:16;;;;;;;1.40;1.40;;;27.00;56.70;;;;;;5049643;28;20698;-63
2022/06/28 01:28:44;;;;;;;1.75;1.65;;;27.00;56.70;;;;;;5049869;28;20543;-63
2022/06/28 01:31:12;;;;;;;1.60;1.60;;;27.00;56.70;;;;;;5049412;28;20489;-61
2022/06/28 01:33:42;;;;;;;1.70;1.60;;;27.00;56.70;;;;;;5049768;28;20042;-61
2022/06/28 01:36:10;;;;;;;1.70;1.60;;;27.00;56.70;;;;;;5049075;28;20102;-61
2022/06/28 01:38:39;;;;;;;2.00;1.90;;;27.00;56.70;;;;;;5049311;28;20056;-61
2022/06/28 01:41:08;;;;;;;1.90;1.80;;;27.00;56.70;;;;;;5049232;28;20049;-61
2022/06/28 01:43:38;;;;;;;1.40;1.40;;;27.00;56.70;;;;;;5049099;28;20366;-61
2022/06/28 01:46:06;;;;;;;1.80;1.70;;;27.00;56.70;;;;;;5049358;28;20394;-61
2022/06/28 01:48:33;;;;;;;1.63;1.63;;;27.00;56.70;;;;;;5049005;28;20049;-61
2022/06/28 01:51:01;;;;;;;1.33;1.33;;;27.00;56.70;;;;;;5048993;28;20045;-62
2022/06/28 01:53:28;;;;;;;1.40;1.40;;;27.00;56.70;;;;;;5049020;28;20053;-61
2022/06/28 01:55:56;;;;;;;2.10;2.00;;;27.00;56.60;;;;;;5048973;28;20048;-61
2022/06/28 01:58:23;;;;;;;1.55;1.55;;;27.00;56.60;;;;;;5049258;28;20049;-62
2022/06/28 02:00:50;;;;;;;2.15;2.00;;;26.90;56.60;;;;;;5048442;28;20060;-62
2022/06/28 02:03:18;;;;;;;1.70;1.65;;;27.00;56.70;;;;;;5048928;28;20049;-62
2022/06/28 02:05:45;;;;;;;1.40;1.40;;;27.00;56.70;;;;;;5048326;28;20045;-62
2022/06/28 02:08:12;;;;;;;1.60;1.60;;;26.90;56.60;;;;;;5049006;28;20053;-62
2022/06/28 02:10:39;;;;;;;1.60;1.60;;;26.90;56.60;;;;;;5048654;28;20057;-61
2022/06/28 02:13:06;;;;;;;1.52;1.50;;;26.90;56.60;;;;;;5048758;28;20705;-62
2022/06/28 02:15:33;;;;;;;1.30;1.30;;;26.90;56.60;;;;;;5048788;28;20041;-62
2022/06/28 02:18:01;;;;;;;1.42;1.42;;;26.90;56.60;;;;;;5048866;28;20049;-62
2022/06/28 02:20:28;;;;;;;1.52;1.52;;;26.90;56.60;;;;;;5047165;28;20575;-62
2022/06/28 02:22:56;;;;;;;1.40;1.40;;;26.90;56.60;;;;;;5048752;28;20045;-62
2022/06/28 02:25:23;;;;;;;1.42;1.33;;;26.90;56.60;;;;;;5048446;28;20136;-62
2022/06/28 02:27:51;;;;;;;1.73;1.63;;;26.90;56.60;;;;;;5048253;28;20521;-62
2022/06/28 02:30:21;;;;;;;1.80;1.70;;;26.90;56.70;;;;;;5048589;28;20448;-62
2022/06/28 02:32:49;;;;;;;1.63;1.52;;;26.90;56.60;;;;;;5047942;28;20049;-62
2022/06/28 02:40:50;;;;;;;1.90;1.80;;;26.90;56.70;;;;;;5048220;28;20497;-62
2022/06/28 02:43:18;;;;;;;1.20;1.20;;;26.90;56.70;;;;;;5047677;28;20049;-62
2022/06/28 02:45:46;;;;;;;1.58;1.58;;;26.90;56.70;;;;;;5048171;28;20103;-62
2022/06/28 02:48:14;;;;;;;1.88;1.77;;;26.90;56.70;;;;;;5047980;28;20412;-62
2022/06/28 02:50:41;;;;;;;1.80;1.70;;;26.90;56.70;;;;;;5047948;28;20049;-62
2022/06/28 02:53:08;;;;;;;1.77;1.70;;;26.80;56.70;;;;;;5048251;28;20128;-62
2022/06/28 02:55:36;;;;;;;1.90;1.80;;;26.90;56.80;;;;;;5048192;28;20045;-62
2022/06/28 02:58:03;;;;;;;1.83;1.73;;;26.90;56.80;;;;;;5048078;28;20073;-62
2022/06/28 03:00:31;;;;;;;1.65;1.60;;;26.80;56.70;;;;;;5047673;28;20041;-62
2022/06/28 03:02:58;;;;;;;1.60;1.60;;;26.90;56.80;;;;;;5047705;28;20099;-62
2022/06/28 03:05:26;;;;;;;1.50;1.50;;;26.90;56.80;;;;;;5048060;28;20457;-62
2022/06/28 03:08:05;;;;;;;1.23;1.23;;;26.90;56.80;;;;;;5049037;28;20052;-62
2022/06/28 03:10:33;;;;;;;1.27;1.27;;;26.90;56.80;;;;;;5046618;28;20048;-62
2022/06/28 03:13:00;;;;;;;1.60;1.60;;;26.90;56.80;;;;;;5046566;28;20052;-62
2022/06/28 03:15:27;;;;;;;1.27;1.27;;;26.90;56.70;;;;;;5046952;28;20053;-62
2022/06/28 03:17:58;;;;;;;1.30;1.30;;;26.90;56.70;;;;;;5047486;28;20547;-62
2022/06/28 03:20:28;;;;;;;1.55;1.45;;;26.90;56.70;;;;;;5047815;28;20071;-62
2022/06/28 03:22:56;;;;;;;1.48;1.42;;;26.90;56.70;;;;;;5047287;28;20056;-62
2022/06/28 03:25:23;;;;;;;1.58;1.58;;;26.90;56.60;;;;;;5047721;28;20454;-62
2022/06/28 03:27:50;;;;;;;1.83;1.73;;;26.90;56.60;;;;;;5047474;28;20055;-62
2022/06/28 03:30:17;;;;;;;1.70;1.60;;;26.90;56.60;;;;;;5047814;28;20421;-62
2022/06/28 03:32:45;;;;;;;1.27;1.27;;;26.90;56.50;;;;;;5046945;28;20049;-62
2022/06/28 03:35:13;;;;;;;1.30;1.30;;;27.00;56.50;;;;;;5047835;28;20105;-62
2022/06/28 03:37:40;;;;;;;1.38;1.38;;;27.00;56.50;;;;;;5047256;28;20045;-62
2022/06/28 03:40:08;;;;;;;4.07;1.45;;;27.00;56.40;;;;;;5046141;28;20049;-62
2022/06/28 03:42:36;;;;;;;1.30;1.30;;;27.00;56.30;;;;;;5046007;28;20056;-62
2022/06/28 03:45:05;;;;;;;1.50;1.50;;;27.00;56.20;;;;;;5047205;28;20061;-62
2022/06/28 03:47:32;;;;;;;1.25;1.25;;;27.00;56.10;;;;;;5047390;28;20098;-62
2022/06/28 03:50:00;;;;;;;1.50;1.50;;;27.10;56.10;;;;;;5045892;28;20049;-62
2022/06/28 03:52:30;;;;;;;1.55;1.45;;;27.10;56.00;;;;;;5047439;28;20049;-62
2022/06/28 03:54:58;;;;;;;1.73;1.63;;;27.10;55.90;;;;;;5045990;28;20048;-62
2022/06/28 03:57:26;;;;;;;1.80;1.70;;;27.20;55.90;;;;;;5047315;28;20041;-62
2022/06/28 03:59:59;;;;;;;1.33;1.33;;;27.20;55.80;;;;;;5047107;28;20053;-62
2022/06/28 04:02:27;;;;;;;1.60;1.60;;;27.20;55.80;;;;;;5046784;28;20084;-62
2022/06/28 04:04:54;;;;;;;1.63;1.58;;;27.20;55.70;;;;;;5047039;28;20049;-62
2022/06/28 04:07:21;;;;;;;1.70;1.60;;;27.20;55.60;;;;;;5045691;28;20064;-62
2022/06/28 04:09:48;;;;;;;1.35;1.35;;;27.20;55.60;;;;;;5045631;28;20041;-62
2022/06/28 04:12:16;;;;;;;1.67;1.58;;;27.20;55.60;;;;;;5047181;28;20049;-62
2022/06/28 04:14:43;;;;;;;1.55;1.45;;;27.30;55.60;;;;;;5047074;28;20045;-62
2022/06/28 04:17:14;;;;;;;1.60;1.50;;;27.30;55.50;;;;;;5047177;28;20048;-62
2022/06/28 04:19:41;;;;;;;1.60;1.50;;;27.30;55.50;;;;;;5046773;28;20053;-62
2022/06/28 04:22:08;;;;;;;1.67;1.52;;;27.30;55.50;;;;;;5047161;28;20049;-62
2022/06/28 04:24:35;;;;;;;1.20;1.20;;;27.30;55.40;;;;;;5046792;28;20502;-62
2022/06/28 04:27:03;;;;;;;1.42;1.42;;;27.30;55.40;;;;;;5047452;28;20045;-62
2022/06/28 04:29:31;;;;;;;1.45;1.45;;;27.30;55.30;;;;;;5050682;28;20103;-63
2022/06/28 04:31:58;;;;;;;1.65;1.60;;;27.30;55.30;;;;;;5050709;28;20098;-62
2022/06/28 04:34:30;;;;;;;1.95;1.85;;;27.30;55.30;;;;;;5050334;28;20084;-62
2022/06/28 04:36:58;;;;;;;1.20;1.20;;;27.40;55.30;;;;;;5051039;28;20401;-62
2022/06/28 04:39:25;;;;;;;1.40;1.40;;;27.30;55.20;;;;;;5050584;28;20102;-62
2022/06/28 04:41:52;;;;;;;1.17;1.17;;;27.40;55.30;;;;;;5050403;28;20087;-62
2022/06/28 04:44:19;;;;;;;1.30;1.30;;;27.40;55.30;;;;;;5050011;28;20098;-62
2022/06/28 04:46:46;;;;;;;1.40;1.40;;;27.40;55.20;;;;;;5049363;28;20088;-62
2022/06/28 04:49:14;;;;;;;1.63;1.52;;;27.40;55.20;;;;;;5050567;28;20052;-62
2022/06/28 04:51:41;;;;;;;1.40;1.40;;;27.40;55.20;;;;;;5050683;28;20041;-62
2022/06/28 04:54:08;;;;;;;1.65;1.65;;;27.40;55.20;;;;;;5049920;28;20544;-62
2022/06/28 04:56:36;;;;;;;1.80;1.70;;;27.40;55.10;;;;;;5050275;28;20041;-62
2022/06/28 04:59:03;;;;;;;1.60;1.50;;;27.40;55.10;;;;;;5051372;28;20044;-62
2022/06/28 05:01:30;;;;;;;1.30;1.30;;;27.40;55.10;;;;;;5068064;28;20056;-62
2022/06/28 05:03:58;;;;;;;1.30;1.30;;;27.50;55.10;;;;;;5060898;28;20048;-62
2022/06/28 05:06:25;;;;;;;1.35;1.35;;;27.40;54.90;;;;;;5058124;28;20056;-62
2022/06/28 05:08:55;;;;;;;1.83;1.73;;;27.40;55.10;;;;;;5046834;28;20469;-62
2022/06/28 05:11:42;;;;;;;;;;;27.30;55.30;;;;;;5051709;28;20139;-62
2022/06/28 05:14:10;;;;;;;1.95;1.45;;;27.10;55.70;;;;;;5047242;28;19971;-62
2022/06/28 05:16:37;;;;;;;1.50;1.30;;;26.90;56.10;;;;;;5049689;28;20045;-62
2022/06/28 05:19:05;;;;;;;1.60;1.50;;;26.60;56.80;;;;;;5048397;28;20059;-64
2022/06/28 05:21:32;;;;;;;4.05;2.80;;;26.40;56.10;;;;;;5043923;28;20507;-64
2022/06/28 05:24:00;;;;;;;2.42;2.25;;;26.00;55.60;;;;;;5058479;28;20397;-64
2022/06/28 05:26:27;;;;;;;2.90;2.53;;;25.70;55.60;;;;;;5040157;28;20106;-64
2022/06/28 05:28:54;;;;;;;2.92;2.72;;;25.40;55.80;;;;;;5041993;28;20080;-64
2022/06/28 05:31:22;;;;;;;4.93;3.45;;;25.10;55.80;;;;;;5045559;28;20689;-64
2022/06/28 05:33:49;;;;;;;3.25;2.90;;;24.80;56.10;;;;;;5044290;28;20037;-64
2022/06/28 05:36:16;;;;;;;5.93;2.92;;;24.50;55.10;;;;;;5041008;28;20130;-64
2022/06/28 05:38:44;;;;;;;3.55;3.25;;;24.30;55.80;;;;;;5036847;28;20094;-64
2022/06/28 05:41:12;;;;;;;5.72;3.40;;;24.20;56.70;;;;;;5040938;28;20060;-63
2022/06/28 05:43:39;;;;;;;7.03;3.47;;;24.00;54.80;;;;;;5039060;28;20138;-63
2022/06/28 05:46:06;;;;;;;4.47;2.92;;;23.90;55.10;;;;;;5036869;28;20448;-62
2022/06/28 05:48:33;;;;;;;3.10;2.78;;;23.80;54.20;;;;;;5045069;28;20052;-61
2022/06/28 05:51:01;;;;;;;4.70;3.03;;;23.50;53.30;;;;;;5044344;28;20044;-61
2022/06/28 05:53:28;;;;;;;3.25;2.95;;;23.20;53.20;;;;;;5036934;28;20049;-63
2022/06/28 05:55:56;;;;;;;4.93;3.80;;;22.90;53.70;;;;;;5041328;28;20049;-63
2022/06/28 05:58:23;;;;;;;5.53;3.15;;;22.70;55.10;;;;;;5042738;28;20493;-65
2022/06/28 06:00:51;;;;;;;3.28;3.08;;;22.40;55.10;;;;;;5041257;28;20053;-63
2022/06/28 06:03:18;;;;;;;4.13;3.13;;;22.20;55.10;;;;;;5043931;28;20057;-68
2022/06/28 06:05:45;;;;;;;4.57;3.47;;;22.00;56.60;;;;;;5045091;28;20040;-67
2022/06/28 06:08:12;;;;;;;5.82;3.55;;;21.90;57.20;;;;;;5043133;28;20094;-64
2022/06/28 06:10:40;;;;;;;3.90;3.60;;;21.80;58.20;;;;;;5043659;28;20098;-61
2022/06/28 06:13:07;;;;;;;3.20;2.90;;;21.70;58.20;;;;;;5046065;28;20041;-63
2022/06/28 06:15:34;;;;;;;5.53;3.83;;;21.60;59.30;;;;;;5038054;28;20045;-61
2022/06/28 06:18:02;;;;;;;7.35;3.33;;;21.60;59.10;;;;;;5041904;28;20061;-62
2022/06/28 06:20:29;;;;;;;5.78;3.92;;;21.60;64.00;;;;;;5040316;28;20064;-63
2022/06/28 06:22:57;;;;;;;4.35;3.95;;;21.70;65.10;;;;;;5040784;28;20052;-64
2022/06/28 06:25:25;;;;;;;4.35;3.92;;;21.90;64.10;;;;;;5043023;28;20110;-64
2022/06/28 06:27:53;;;;;;;3.90;3.60;;;22.20;63.60;;;;;;5044573;28;20103;-63
2022/06/28 06:30:20;;;;;;;3.60;3.30;;;22.30;62.90;;;;;;5044722;28;20053;-63
2022/06/28 06:32:47;;;;;;;7.53;3.67;;;22.40;62.30;;;;;;5036320;28;20056;-61
2022/06/28 06:35:14;;;;;;;3.25;3.03;;;22.60;62.00;;;;;;5044265;28;20114;-63
2022/06/28 06:37:42;;;;;;;3.17;2.97;;;22.70;62.30;;;;;;5040196;28;20065;-62
2022/06/28 06:40:09;;;;;;;4.72;3.00;;;22.80;61.90;;;;;;5039549;28;20063;-61
2022/06/28 06:42:37;;;;;;;3.47;3.20;;;22.80;61.80;;;;;;5038852;28;20129;-61
2022/06/28 06:45:05;;;;;;;3.53;3.22;;;22.90;61.50;;;;;;5037118;28;20048;-61
2022/06/28 06:47:32;;;;;;;3.70;3.38;;;23.00;61.40;;;;;;5039982;28;20057;-62
2022/06/28 06:50:01;;;;;;;4.35;3.20;;;23.00;61.30;;;;;;5035531;28;20041;-63
2022/06/28 06:52:28;;;;;;;3.97;2.95;;;23.00;61.60;;;;;;5037614;28;20060;-64
2022/06/28 06:54:56;;;;;;;4.43;3.40;;;23.10;61.60;;;;;;5038499;28;20052;-61
2022/06/28 06:57:28;;;;;;;3.28;3.08;;;23.10;61.60;;;;;;5042549;28;20053;-62
2022/06/28 06:59:56;;;;;;;2.80;2.60;;;23.10;58.90;;;;;;5042238;28;20041;-63
2022/06/28 07:02:23;;;;;;;3.13;2.83;;;23.00;57.50;;;;;;5045385;28;20542;-62
2022/06/28 07:04:50;;;;;;;3.00;2.80;;;22.90;57.60;;;;;;5044221;28;20079;-62
2022/06/28 07:07:18;;;;;;;3.03;2.83;;;22.70;57.90;;;;;;5041652;28;20075;-62
2022/06/28 07:09:45;;;;;;;3.15;2.85;;;22.50;58.50;;;;;;5039360;28;20049;-62
2022/06/28 07:12:12;;;;;;;4.75;2.85;;;22.30;59.10;;;;;;5044899;28;20110;-62
2022/06/28 07:14:39;;;;;;;2.70;2.50;;;22.20;59.70;;;;;;5039934;28;20489;-62
2022/06/28 07:17:07;;;;;;;2.80;2.60;;;22.10;60.10;;;;;;5064019;28;20482;-62
2022/06/28 07:19:34;;;;;;;3.45;3.20;;;22.10;60.20;;;;;;5042504;28;20110;-61
2022/06/28 07:22:01;;;;;;;3.38;3.08;;;22.00;60.40;;;;;;5038146;28;20045;-62
2022/06/28 07:24:29;;;;;;;3.15;2.90;;;21.90;60.50;;;;;;5038477;28;20049;-64
2022/06/28 07:26:56;;;;;;;4.45;2.85;;;21.90;61.30;;;;;;5040684;28;20049;-63
2022/06/28 07:29:24;;;;;;;3.03;2.78;;;21.80;61.70;;;;;;5036122;28;20044;-64
2022/06/28 07:31:51;;;;;;;3.05;2.70;;;21.80;62.00;;;;;;5042716;28;20048;-64
2022/06/28 07:34:18;;;;;;;4.50;2.63;;;21.80;62.30;;;;;;5039437;28;20041;-64
2022/06/28 07:36:46;;;;;;;3.90;3.55;;;21.80;62.20;;;;;;5036118;28;20041;-65
2022/06/28 07:39:13;;;;;;;5.95;2.50;;;21.80;62.40;;;;;;5038511;28;20049;-64
2022/06/28 07:41:40;;;;;;;2.70;2.50;;;21.90;61.90;;;;;;5038942;28;20056;-65
2022/06/28 07:44:08;;;;;;;5.53;2.95;;;21.90;62.10;;;;;;5044127;28;20052;-64
2022/06/28 07:46:35;;;;;;;3.10;2.63;;;21.90;62.10;;;;;;5036562;28;20049;-65
2022/06/28 07:49:03;;;;;;;2.95;2.40;;;22.00;61.90;;;;;;5042361;28;20059;-64
2022/06/28 07:54:17;;;;;;;2.78;2.58;;;22.00;62.20;;;;;;5042052;28;20128;-66
2022/06/28 07:56:44;;;;;;;3.10;2.83;;;22.00;62.30;;;;;;5040610;28;20072;-65
2022/06/28 07:59:12;;;;;;;3.17;2.47;;;22.00;65.20;;;;;;5039845;28;20481;-65
2022/06/28 08:01:39;;;;;;;8.05;3.17;;;22.20;66.10;;;;;;5046151;28;20057;-64
2022/06/28 08:04:08;;;;;;;4.25;3.00;;;22.40;65.50;;;;;;5045344;28;20068;-64
2022/06/28 08:06:35;;;;;;;5.07;2.20;;;22.60;64.90;;;;;;5038682;28;20049;-64
2022/06/28 08:09:02;;;;;;;4.32;3.20;;;22.70;64.80;;;;;;5042593;28;20527;-66
2022/06/28 08:11:32;;;;;;;3.70;2.78;;;22.90;64.70;;;;;;5041523;28;20046;-65
2022/06/28 08:14:02;;;;;;;4.10;2.95;;;23.00;64.30;;;;;;5042438;28;20054;-64
2022/06/28 08:16:29;;;;;;;3.63;2.35;;;23.10;64.10;;;;;;5041977;28;20041;-64
2022/06/28 08:18:57;;;;;;;3.65;3.03;;;23.20;63.70;;;;;;5043322;28;20124;-63
2022/06/28 08:21:24;;;;;;;4.07;3.13;;;23.20;63.80;;;;;;5043562;28;20076;-63
2022/06/28 08:23:51;;;;;;;3.10;2.90;;;23.30;63.60;;;;;;5036152;28;20514;-64
2022/06/28 08:26:19;;;;;;;2.65;2.45;;;23.30;63.60;;;;;;5043371;28;20505;-64
2022/06/28 08:28:46;;;;;;;2.80;2.60;;;23.30;63.60;;;;;;5043594;28;20528;-64
2022/06/28 08:31:13;;;;;;;3.17;2.88;;;23.30;63.60;;;;;;5046035;28;20049;-63
2022/06/28 08:33:41;;;;;;;3.00;2.80;;;23.40;63.40;;;;;;5040521;28;20395;-61
2022/06/28 08:36:08;;;;;;;2.50;2.30;;;23.40;63.00;;;;;;5045434;28;20041;-64
2022/06/28 08:38:35;;;;;;;2.67;2.47;;;23.40;62.80;;;;;;5048372;28;20055;-63
2022/06/28 08:41:05;;;;;;;2.95;2.72;;;23.40;62.90;;;;;;5042397;28;20100;-64
2022/06/28 08:43:33;;;;;;;3.25;2.92;;;23.40;62.70;;;;;;5047583;28;20107;-64
2022/06/28 08:46:03;;;;;;;2.90;2.70;;;23.40;62.70;;;;;;5043098;28;20048;-63
2022/06/28 08:48:42;;;;;;;2.72;2.53;;;23.40;62.60;;;;;;5037512;28;20057;-64
2022/06/28 08:51:11;;;;;;;2.75;2.55;;;23.40;62.60;;;;;;5034229;28;20113;-64
2022/06/28 08:53:40;;;;;;;4.10;2.33;;;23.50;62.60;;;;;;5046911;28;20095;-64
2022/06/28 08:56:10;;;;;;;2.60;2.40;;;23.40;60.80;;;;;;5037276;28;20095;-63
2022/06/28 08:58:42;;;;;;;5.40;2.17;;;23.30;59.50;;;;;;5040616;28;20060;-63
2022/06/28 09:01:12;;;;;;;2.75;2.55;;;23.20;59.30;;;;;;5048489;28;20056;-63
2022/06/28 09:03:40;;;;;;;2.80;2.60;;;23.00;59.40;;;;;;5022779;28;20167;-63
2022/06/28 09:06:07;;;;;;;5.15;2.55;;;22.80;59.50;;;;;;5040629;28;20152;-63
2022/06/28 09:08:34;;;;;;;3.70;2.97;;;22.70;59.50;;;;;;5043286;28;20049;-62
2022/06/28 09:11:01;;;;;;;3.38;2.45;;;22.60;59.90;;;;;;5038475;28;20055;-64
2022/06/28 09:13:29;;;;;;;2.45;2.25;;;22.40;60.00;;;;;;5039434;28;20041;-62
2022/06/28 09:16:01;;;;;;;3.08;2.42;;;22.30;60.50;;;;;;5046166;28;20059;-60
2022/06/28 09:18:47;;;;;;;3.03;2.80;;;22.20;61.00;;;;;;5043781;28;20049;-60
2022/06/28 09:21:17;;;;;;;2.55;2.42;;;22.10;60.90;;;;;;5039901;28;20098;-64
2022/06/28 09:23:49;;;;;;;;;;;22.10;61.00;;;;;;5040320;28;20482;-63
2022/06/28 09:26:19;;;;;;;2.45;2.25;;;22.00;60.80;;;;;;5045207;28;19929;-64
2022/06/28 09:28:48;;;;;;;4.03;3.33;;;21.90;61.30;;;;;;5038749;28;20126;-63
2022/06/28 09:31:25;;;;;;;3.00;2.60;;;21.80;61.50;;;;;;5039721;28;20099;-62
2022/06/28 09:34:09;;;;;;;3.00;2.80;;;21.80;61.80;;;;;;5040179;28;20103;-64
2022/06/28 09:36:50;;;;;;;4.18;2.67;;;21.70;62.00;;;;;;5041270;28;20486;-64
2022/06/28 09:39:19;;;;;;;2.90;2.70;;;21.70;62.50;;;;;;5041410;28;20091;-65
2022/06/28 09:41:52;;;;;;;3.65;3.35;;;21.70;63.10;;;;;;5044188;28;20406;-62
2022/06/28 09:44:40;;;;;;;3.75;3.10;;;21.70;63.00;;;;;;5043548;28;20140;-61
2022/06/28 09:47:12;;;;;;;3.30;3.10;;;21.70;62.70;;;;;;5045306;28;20497;-62
2022/06/28 09:49:45;;;;;;;5.03;3.40;;;21.70;62.10;;;;;;5043194;28;20236;-63
2022/06/28 09:52:13;;;;;;;4.82;3.40;;;21.60;62.30;;;;;;5044581;28;20548;-64
2022/06/28 09:54:44;;;;;;;5.65;3.75;;;21.60;62.60;;;;;;5043455;28;20049;-63
2022/06/28 09:57:13;;;;;;;3.80;3.50;;;21.60;62.80;;;;;;5037531;28;20079;-64
2022/06/28 09:59:41;;;;;;;4.03;3.20;;;21.60;62.80;;;;;;5041460;28;20052;-64
2022/06/28 10:02:14;;;;;;;3.17;2.92;;;21.60;62.70;;;;;;5042769;28;20053;-63
2022/06/28 10:04:43;;;;;;;3.17;2.90;;;21.60;62.50;;;;;;5069379;28;20064;-63
2022/06/28 10:07:14;;;;;;;5.97;3.13;;;21.70;62.50;;;;;;5043812;28;20044;-61
2022/06/28 10:09:42;;;;;;;5.63;2.90;;;21.80;62.50;;;;;;5041994;28;20048;-61
2022/06/28 10:15:04;;;;;;;3.03;2.83;;;21.80;62.00;;;;;;5042060;28;20474;-62
2022/06/28 10:17:54;;;;;;;3.35;3.10;;;21.80;61.60;;;;;;5040935;28;20045;-62
2022/06/28 10:20:33;;;;;;;3.38;3.05;;;21.90;61.60;;;;;;5034594;28;20103;-62
2022/06/28 10:23:25;;;;;;;8.10;3.50;;;21.90;61.70;;;;;;5038578;28;20037;-61
2022/06/28 10:26:20;;;;;;;3.38;3.17;;;21.90;61.80;;;;;;5040084;28;20052;-62
2022/06/28 10:29:04;;;;;;;3.22;2.88;;;21.90;61.60;;;;;;5043933;28;20053;-63
2022/06/28 10:31:37;;;;;;;2.85;2.65;;;21.90;61.20;;;;;;5044134;28;20049;-62
2022/06/28 10:34:16;;;;;;;2.88;2.67;;;22.00;61.30;;;;;;5040413;28;20048;-63
2022/06/28 10:36:53;;;;;;;2.80;2.60;;;21.90;61.40;;;;;;5042700;28;20076;-62
2022/06/28 10:39:28;;;;;;;3.63;3.33;;;22.00;61.30;;;;;;5044454;28;20060;-62
2022/06/28 10:42:07;;;;;;;3.58;3.10;;;22.00;61.30;;;;;;5043034;28;20061;-62
2022/06/28 10:44:46;;;;;;;2.75;2.55;;;21.90;61.60;;;;;;5039797;28;20102;-62
2022/06/28 10:47:16;;;;;;;3.20;2.97;;;22.00;61.40;;;;;;5044168;28;20041;-62
2022/06/28 10:49:58;;;;;;;3.03;2.83;;;22.00;61.80;;;;;;5041882;28;20053;-62
2022/06/28 10:52:35;;;;;;;3.55;3.03;;;22.00;61.40;;;;;;5046768;28;20048;-61
2022/06/28 10:55:22;;;;;;;3.08;2.88;;;22.00;61.90;;;;;;5044164;28;20060;-61
2022/06/28 10:58:06;;;;;;;3.58;3.30;;;22.00;62.00;;;;;;5039708;28;20036;-62
2022/06/28 11:00:49;;;;;;;2.63;2.42;;;22.00;62.10;;;;;;5043689;28;20045;-63
2022/06/28 11:03:16;;;;;;;2.85;2.65;;;22.00;62.10;;;;;;5037169;28;20106;-62
2022/06/28 11:05:48;;;;;;;3.22;2.92;;;22.10;62.40;;;;;;5042832;28;20076;-62
2022/06/28 11:08:41;;;;;;;3.28;3.03;;;22.10;62.40;;;;;;5041837;28;21425;-62
2022/06/28 11:11:09;;;;;;;3.70;2.72;;;22.20;62.40;;;;;;5036379;28;20503;-64
2022/06/28 11:13:36;;;;;;;3.40;3.20;;;22.20;62.60;;;;;;5041561;28;20048;-62
2022/06/28 11:16:04;;;;;;;3.33;3.10;;;22.30;62.60;;;;;;5037203;28;20087;-63
2022/06/28 11:18:31;;;;;;;3.00;2.80;;;22.30;62.40;;;;;;5036805;28;20064;-63
2022/06/28 11:21:00;;;;;;;3.85;3.15;;;22.40;62.20;;;;;;5039150;28;20056;-61
2022/06/28 11:23:30;;;;;;;4.10;3.47;;;22.40;62.00;;;;;;5038619;28;20045;-63
2022/06/28 11:29:03;;;;;;;3.22;3.03;;;22.50;61.90;;;;;;5043812;28;20048;-62
2022/06/28 11:31:39;;;;;;;3.00;2.80;;;22.50;61.70;;;;;;5046508;28;20048;-62
2022/06/28 11:34:07;;;;;;;3.45;3.15;;;22.60;61.90;;;;;;5040115;28;20149;-63
2022/06/28 11:36:35;;;;;;;3.22;3.03;;;22.70;61.90;;;;;;5038269;28;20440;-63
2022/06/28 11:39:15;;;;;;;4.10;3.05;;;22.70;61.90;;;;;;5042521;28;20056;-63
2022/06/28 11:41:51;;;;;;;3.67;2.60;;;22.60;62.00;;;;;;5043857;28;20080;-62
2022/06/28 11:44:19;;;;;;;3.88;3.03;;;22.70;62.10;;;;;;5038124;28;20125;-62
2022/06/28 11:46:46;;;;;;;4.22;3.00;;;22.70;61.60;;;;;;5037984;28;20045;-61
2022/06/28 11:49:24;;;;;;;3.53;3.22;;;22.70;61.70;;;;;;5033877;28;20421;-62
2022/06/28 11:51:51;;;;;;;3.25;3.05;;;22.80;61.70;;;;;;5040817;28;20049;-63
2022/06/28 11:54:20;;;;;;;2.88;2.72;;;22.80;61.70;;;;;;5043227;28;20200;-61
2022/06/28 11:56:48;;;;;;;3.17;2.88;;;22.80;61.80;;;;;;5038341;28;20049;-62
2022/06/28 11:59:16;;;;;;;6.40;3.42;;;22.80;61.70;;;;;;5039728;28;20140;-60
2022/06/28 12:01:44;;;;;;;3.28;3.08;;;22.90;61.70;;;;;;5042162;28;20048;-61
2022/06/28 12:04:22;;;;;;;3.20;3.00;;;22.90;61.70;;;;;;5036375;28;20053;-63
2022/06/28 12:06:50;;;;;;;2.88;2.67;;;22.90;61.50;;;;;;5039513;28;20060;-61
2022/06/28 12:09:17;;;;;;;4.00;3.05;;;22.90;61.50;;;;;;5039824;28;20110;-62
2022/06/28 12:11:52;;;;;;;4.55;3.10;;;22.90;61.90;;;;;;5038801;28;20049;-65
2022/06/28 12:14:22;;;;;;;3.67;3.38;;;22.90;62.00;;;;;;5038189;28;20210;-63
2022/06/28 12:16:58;;;;;;;3.50;3.30;;;22.90;62.20;;;;;;5039513;28;20056;-64
2022/06/28 12:19:33;;;;;;;3.45;3.15;;;22.90;62.30;;;;;;5039221;28;20045;-64
2022/06/28 12:22:10;;;;;;;3.35;3.05;;;22.90;62.30;;;;;;5038519;28;20045;-65
2022/06/28 12:24:48;;;;;;;3.42;3.22;;;22.90;62.30;;;;;;5040014;28;20049;-63
2022/06/28 12:27:24;;;;;;;3.72;3.30;;;22.90;62.20;;;;;;5038544;28;20176;-64
2022/06/28 12:29:53;;;;;;;3.65;3.35;;;22.90;62.80;;;;;;5028506;28;20101;-64
2022/06/28 12:32:21;;;;;;;4.45;3.20;;;22.90;62.50;;;;;;5040719;28;20118;-65
2022/06/28 12:35:10;;;;;;;3.40;3.10;;;23.00;62.40;;;;;;5063516;28;20447;-63
2022/06/28 12:37:37;;;;;;;3.08;2.78;;;23.00;62.00;;;;;;5048066;28;20443;-62
2022/06/28 12:40:06;;;;;;;3.17;2.97;;;23.00;61.90;;;;;;5037244;28;20053;-62
2022/06/28 12:42:35;;;;;;;2.85;2.67;;;23.00;61.60;;;;;;5040751;28;20564;-62
2022/06/28 12:45:03;;;;;;;3.63;3.33;;;23.00;61.50;;;;;;5035575;28;20072;-60
2022/06/28 12:47:37;;;;;;;3.55;3.25;;;23.00;61.50;;;;;;5042127;28;20047;-60
2022/06/28 12:50:07;;;;;;;3.40;3.20;;;23.10;61.20;;;;;;5040655;28;20053;-63
2022/06/28 12:52:36;;;;;;;3.25;2.92;;;23.10;61.20;;;;;;5042577;28;20045;-60
2022/06/28 12:55:06;;;;;;;4.15;3.00;;;23.10;61.10;;;;;;5047318;28;20049;-60
2022/06/28 12:57:33;;;;;;;3.45;3.15;;;23.00;60.80;;;;;;5040308;28;20041;-59
2022/06/28 13:00:05;;;;;;;3.22;2.85;;;23.00;60.70;;;;;;5045404;28;20044;-59
2022/06/28 13:02:32;;;;;;;2.95;2.75;;;23.00;60.70;;;;;;5050255;28;20099;-59
2022/06/28 13:04:59;;;;;;;2.90;2.70;;;23.10;60.60;;;;;;5045195;28;20048;-59
2022/06/28 13:07:26;;;;;;;3.17;2.97;;;23.00;60.50;;;;;;5041824;28;20041;-59
2022/06/28 13:09:54;;;;;;;3.38;3.17;;;23.00;60.50;;;;;;5047055;28;20434;-60
2022/06/28 13:12:21;;;;;;;2.72;2.60;;;23.00;60.60;;;;;;5039713;28;20074;-59
2022/06/28 13:14:52;;;;;;;3.33;3.08;;;23.00;60.60;;;;;;5044709;28;20060;-59
2022/06/28 13:17:23;;;;;;;3.65;2.80;;;23.00;60.70;;;;;;5044464;28;20055;-59